createdAt,value
2023-03-02T00:01:21.718Z,57.90
2023-03-02T00:03:49.260Z,57.80
2023-03-02T00:06:17.093Z,57.90
2023-03-02T00:08:44.370Z,57.90
2023-03-02T00:11:11.511Z,58.00
2023-03-02T00:13:38.884Z,58.10
2023-03-02T00:16:06.091Z,58.40
2023-03-02T00:18:33.282Z,58.30
2023-03-02T00:21:00.277Z,58.10
2023-03-02T00:23:27.405Z,58.00
2023-03-02T00:25:54.324Z,58.00
2023-03-02T00:28:21.162Z,58.10
2023-03-02T00:30:48.182Z,58.00
2023-03-02T00:33:15.204Z,57.90
2023-03-02T00:35:43.267Z,58.00
2023-03-02T00:38:10.169Z,57.80
2023-03-02T00:40:37.136Z,57.90
2023-03-02T00:43:04.553Z,57.80
2023-03-02T00:45:31.534Z,58.00
2023-03-02T00:47:58.570Z,58.10
2023-03-02T00:50:25.473Z,58.30
2023-03-02T00:52:52.379Z,58.30
2023-03-02T00:55:19.251Z,58.40
2023-03-02T00:57:55.051Z,58.20
2023-03-02T01:00:23.236Z,58.30
2023-03-02T01:02:51.121Z,58.30
2023-03-02T01:05:18.140Z,58.10
2023-03-02T01:07:45.156Z,58.20
2023-03-02T01:10:12.238Z,58.30
2023-03-02T01:12:39.303Z,58.30
2023-03-02T01:15:07.564Z,58.60
2023-03-02T01:17:34.586Z,58.30
2023-03-02T01:20:01.554Z,58.20
2023-03-02T01:22:28.509Z,58.50
2023-03-02T01:24:55.397Z,58.40
2023-03-02T01:27:22.607Z,58.70
2023-03-02T01:29:50.930Z,58.70
2023-03-02T01:32:17.804Z,58.80
2023-03-02T01:34:44.819Z,58.70
2023-03-02T01:37:11.797Z,58.70
2023-03-02T01:39:38.786Z,58.90
2023-03-02T01:42:05.795Z,58.70
2023-03-02T01:44:40.846Z,58.80
2023-03-02T01:47:27.248Z,58.90
2023-03-02T01:49:59.393Z,59.20
2023-03-02T01:52:26.976Z,59.20
2023-03-02T01:54:55.715Z,59.00
2023-03-02T01:57:27.245Z,59.30
2023-03-02T01:59:56.356Z,59.20
2023-03-02T02:02:23.528Z,59.50
2023-03-02T02:04:51.289Z,59.60
2023-03-02T02:07:18.218Z,59.80
2023-03-02T02:09:48.246Z,59.70
2023-03-02T02:12:20.181Z,59.60
2023-03-02T02:14:47.737Z,59.70
2023-03-02T02:17:15.148Z,60.00
2023-03-02T02:19:52.913Z,59.80
2023-03-02T02:22:27.130Z,59.80
2023-03-02T02:24:58.756Z,60.00
2023-03-02T02:27:30.013Z,60.00
2023-03-02T02:29:58.491Z,60.10
2023-03-02T02:32:27.347Z,60.00
2023-03-02T02:34:59.082Z,60.10
2023-03-02T02:37:25.921Z,59.90
2023-03-02T02:39:52.839Z,59.90
2023-03-02T02:42:31.358Z,60.00
2023-03-02T02:44:59.191Z,60.10
2023-03-02T02:47:26.137Z,60.20
2023-03-02T02:49:54.530Z,60.00
2023-03-02T02:52:23.000Z,60.20
2023-03-02T02:54:51.381Z,60.30
2023-03-02T02:57:18.674Z,60.60
2023-03-02T02:59:47.591Z,60.60
2023-03-02T03:02:17.375Z,60.40
2023-03-02T03:04:44.365Z,60.50
2023-03-02T03:07:13.991Z,60.60
2023-03-02T03:09:40.895Z,60.40
2023-03-02T03:12:11.258Z,60.50
2023-03-02T03:14:39.778Z,60.70
2023-03-02T03:17:12.227Z,60.70
2023-03-02T03:19:43.815Z,60.60
2023-03-02T03:22:14.104Z,60.90
2023-03-02T03:24:41.669Z,60.90
2023-03-02T03:27:09.198Z,61.00
2023-03-02T03:29:37.113Z,61.10
2023-03-02T03:32:04.469Z,61.00
2023-03-02T03:34:31.556Z,61.10
2023-03-02T03:37:01.980Z,60.90
2023-03-02T03:39:29.465Z,61.10
2023-03-02T03:41:56.408Z,61.30
2023-03-02T03:44:23.462Z,61.30
2023-03-02T03:46:50.652Z,61.20
2023-03-02T03:49:17.533Z,61.20
2023-03-02T03:51:44.603Z,61.10
2023-03-02T03:54:11.518Z,61.20
2023-03-02T03:56:40.015Z,61.20
2023-03-02T03:59:08.474Z,61.30
2023-03-02T04:01:35.409Z,61.20
2023-03-02T04:04:03.187Z,60.90
2023-03-02T04:06:30.259Z,60.80
2023-03-02T04:08:57.591Z,60.80
2023-03-02T04:11:24.506Z,60.80
2023-03-02T04:13:51.408Z,60.90
2023-03-02T04:16:19.963Z,60.80
2023-03-02T04:18:46.874Z,60.70
2023-03-02T04:21:13.778Z,60.50
2023-03-02T04:23:40.703Z,60.60
2023-03-02T04:26:07.559Z,60.50
2023-03-02T04:28:34.438Z,60.60
2023-03-02T04:31:01.362Z,60.70
2023-03-02T04:33:28.683Z,60.90
2023-03-02T04:35:55.550Z,60.90
2023-03-02T04:38:22.923Z,60.90
2023-03-02T04:40:49.791Z,60.80
2023-03-02T04:43:16.708Z,60.90
2023-03-02T04:45:43.616Z,60.90
2023-03-02T04:48:10.419Z,60.90
2023-03-02T04:50:38.570Z,60.90
2023-03-02T04:53:05.475Z,61.10
2023-03-02T04:55:32.347Z,61.30
2023-03-02T04:57:59.230Z,61.10
2023-03-02T05:00:29.009Z,61.00
2023-03-02T05:02:58.135Z,61.10
2023-03-02T05:05:25.145Z,61.20
2023-03-02T05:07:52.728Z,61.20
2023-03-02T05:10:20.107Z,61.30
2023-03-02T05:12:58.918Z,61.50
2023-03-02T05:15:27.322Z,61.20
2023-03-02T05:17:54.640Z,61.00
2023-03-02T05:20:22.145Z,61.10
2023-03-02T05:22:49.166Z,61.00
2023-03-02T05:25:16.038Z,61.10
2023-03-02T05:27:42.912Z,61.10
2023-03-02T05:30:10.163Z,60.90
2023-03-02T05:32:37.015Z,60.90
2023-03-02T05:35:04.091Z,60.90
2023-03-02T05:37:30.990Z,61.10
2023-03-02T05:39:58.521Z,61.00
2023-03-02T05:42:25.491Z,61.10
2023-03-02T05:44:52.440Z,60.60
2023-03-02T05:47:19.325Z,60.70
2023-03-02T05:49:46.190Z,60.70
2023-03-02T05:52:12.992Z,60.90
2023-03-02T05:54:39.935Z,61.00
2023-03-02T05:57:07.492Z,61.10
2023-03-02T05:59:34.482Z,61.10
2023-03-02T06:02:01.544Z,61.20
2023-03-02T06:04:28.482Z,61.30
2023-03-02T06:06:55.381Z,61.20
2023-03-02T06:09:22.508Z,61.20
2023-03-02T06:11:49.361Z,61.10
2023-03-02T06:14:16.257Z,61.00
2023-03-02T06:16:43.180Z,60.90
2023-03-02T06:19:10.254Z,61.00
2023-03-02T06:21:37.173Z,61.00
2023-03-02T06:24:04.046Z,61.00
2023-03-02T06:26:31.135Z,61.10
2023-03-02T06:28:58.869Z,61.10
2023-03-02T06:31:25.989Z,61.00
2023-03-02T06:33:52.861Z,61.10
2023-03-02T06:36:19.833Z,60.90
2023-03-02T06:38:49.574Z,60.90
2023-03-02T06:41:16.427Z,60.80
2023-03-02T06:43:43.714Z,60.70
2023-03-02T06:46:10.685Z,60.80
2023-03-02T06:48:37.832Z,60.70
2023-03-02T06:51:04.846Z,60.60
2023-03-02T06:53:31.682Z,60.60
2023-03-02T06:55:58.585Z,60.40
2023-03-02T06:58:25.542Z,60.30
2023-03-02T07:00:52.416Z,60.30
2023-03-02T07:03:19.430Z,60.20
2023-03-02T07:05:49.179Z,60.20
2023-03-02T07:08:16.151Z,60.10
2023-03-02T07:10:43.036Z,60.10
2023-03-02T07:13:09.897Z,59.60
2023-03-02T07:15:38.888Z,59.60
2023-03-02T07:18:05.928Z,59.50
2023-03-02T07:20:32.911Z,59.40
2023-03-02T07:22:59.958Z,59.40
2023-03-02T07:25:26.944Z,59.40
2023-03-02T07:27:53.760Z,59.30
2023-03-02T07:30:21.454Z,59.40
2023-03-02T07:32:48.852Z,59.40
2023-03-02T07:35:19.575Z,59.10
2023-03-02T07:37:46.482Z,59.20
2023-03-02T07:40:13.704Z,58.90
2023-03-02T07:42:40.585Z,58.80
2023-03-02T07:45:07.796Z,59.10
2023-03-02T07:47:34.682Z,58.80
2023-03-02T07:50:01.559Z,59.00
2023-03-02T07:52:29.750Z,58.60
2023-03-02T07:54:57.029Z,58.30
2023-03-02T07:57:24.035Z,58.10
2023-03-02T07:59:51.000Z,58.40
2023-03-02T08:02:18.404Z,58.20
2023-03-02T08:04:45.256Z,58.30
2023-03-02T08:07:12.451Z,58.20
2023-03-02T08:09:40.037Z,57.30
2023-03-02T08:12:07.115Z,57.70
2023-03-02T08:14:34.054Z,57.20
2023-03-02T08:17:01.017Z,56.70
2023-03-02T08:19:27.902Z,56.10
2023-03-02T08:21:54.848Z,56.10
2023-03-02T08:24:21.846Z,55.90
2023-03-02T08:26:48.758Z,55.50
2023-03-02T08:29:15.708Z,55.10
2023-03-02T08:31:42.657Z,55.60
2023-03-02T08:34:09.665Z,55.20
2023-03-02T08:36:36.552Z,55.20
2023-03-02T08:39:03.425Z,55.10
2023-03-02T08:41:30.961Z,54.70
2023-03-02T08:43:57.940Z,55.00
2023-03-02T08:46:24.882Z,54.80
2023-03-02T08:48:51.756Z,54.80
2023-03-02T08:51:21.396Z,55.40
2023-03-02T08:53:50.594Z,55.50
2023-03-02T08:56:21.808Z,54.80
2023-03-02T08:58:49.202Z,53.80
2023-03-02T09:01:24.259Z,53.00
2023-03-02T09:03:51.851Z,53.00
2023-03-02T09:06:19.211Z,53.30
2023-03-02T09:08:46.616Z,54.00
2023-03-02T09:11:13.876Z,53.70
2023-03-02T09:13:40.968Z,53.10
2023-03-02T09:16:08.747Z,51.80
2023-03-02T09:18:35.786Z,52.10
2023-03-02T09:21:03.071Z,52.40
2023-03-02T09:23:30.487Z,52.40
2023-03-02T09:25:57.314Z,52.70
2023-03-02T09:28:24.358Z,51.70
2023-03-02T09:30:52.431Z,51.00
2023-03-02T09:33:20.374Z,49.90
2023-03-02T09:35:48.629Z,50.00
2023-03-02T09:38:17.188Z,49.60
2023-03-02T09:40:50.179Z,49.30
2023-03-02T09:43:28.331Z,49.50
2023-03-02T09:46:01.622Z,49.10
2023-03-02T09:48:35.548Z,49.10
2023-03-02T09:51:20.995Z,49.40
2023-03-02T09:54:08.168Z,49.30
2023-03-02T09:56:46.945Z,48.90
2023-03-02T09:59:32.291Z,47.80
2023-03-02T10:02:01.906Z,48.40
2023-03-02T10:04:30.287Z,48.60
2023-03-02T10:07:03.034Z,48.70
2023-03-02T10:09:29.896Z,49.40
2023-03-02T10:12:15.738Z,47.70
2023-03-02T10:14:47.178Z,47.40
2023-03-02T10:17:23.139Z,47.80
2023-03-02T10:19:55.685Z,47.50
2023-03-02T10:22:41.175Z,47.00
2023-03-02T10:25:26.655Z,47.40
2023-03-02T10:27:58.418Z,47.80
2023-03-02T10:30:34.086Z,48.00
2023-03-02T10:33:03.478Z,48.10
2023-03-02T10:35:31.822Z,47.10
2023-03-02T10:38:02.097Z,46.90
2023-03-02T10:40:40.143Z,47.60
2023-03-02T10:43:11.787Z,47.20
2023-03-02T10:45:38.763Z,47.50
2023-03-02T10:48:10.253Z,46.60
2023-03-02T10:50:37.453Z,46.20
2023-03-02T10:53:06.671Z,46.30
2023-03-02T10:55:33.676Z,46.30
2023-03-02T10:58:02.716Z,46.40
2023-03-02T11:00:30.870Z,45.50
2023-03-02T11:03:02.702Z,45.90
2023-03-02T11:05:40.056Z,45.70
2023-03-02T11:08:10.491Z,46.20
2023-03-02T11:10:38.750Z,46.20
2023-03-02T11:13:19.562Z,46.10
2023-03-02T11:15:46.415Z,46.00
2023-03-02T11:18:25.783Z,46.40
2023-03-02T11:20:59.184Z,46.50
2023-03-02T11:23:55.400Z,46.10
2023-03-02T11:26:28.036Z,45.50
2023-03-02T11:28:54.878Z,45.60
2023-03-02T11:31:40.643Z,45.70
2023-03-02T11:34:18.287Z,46.10
2023-03-02T11:36:55.105Z,46.40
2023-03-02T11:39:24.779Z,45.50
2023-03-02T11:41:53.995Z,45.30
2023-03-02T11:44:21.463Z,45.70
2023-03-02T11:46:49.539Z,46.10
2023-03-02T11:49:25.346Z,46.00
2023-03-02T11:51:58.812Z,45.30
2023-03-02T11:54:39.426Z,45.90
2023-03-02T11:57:06.775Z,46.00
2023-03-02T11:59:34.225Z,45.60
2023-03-02T12:02:01.753Z,45.00
2023-03-02T12:04:33.365Z,45.20
2023-03-02T12:07:04.602Z,44.80
2023-03-02T12:09:36.092Z,45.20
2023-03-02T12:12:12.252Z,45.50
2023-03-02T12:14:40.181Z,45.80
2023-03-02T12:17:19.532Z,45.80
2023-03-02T12:19:46.820Z,45.40
2023-03-02T12:22:15.416Z,44.50
2023-03-02T12:24:43.947Z,44.60
2023-03-02T12:27:13.835Z,44.80
2023-03-02T12:29:51.054Z,45.10
2023-03-02T12:32:23.463Z,45.40
2023-03-02T12:34:53.227Z,45.70
2023-03-02T12:37:28.067Z,45.40
2023-03-02T12:40:13.356Z,45.30
2023-03-02T12:42:54.999Z,44.60
2023-03-02T12:45:42.188Z,45.10
2023-03-02T12:48:27.450Z,45.50
2023-03-02T12:51:01.852Z,45.00
2023-03-02T12:53:29.351Z,45.10
2023-03-02T12:55:56.267Z,44.90
2023-03-02T12:58:24.729Z,44.90
2023-03-02T13:00:56.245Z,44.60
2023-03-02T13:03:23.457Z,44.50
2023-03-02T13:05:50.392Z,45.00
2023-03-02T13:08:20.790Z,45.20
2023-03-02T13:10:55.245Z,44.90
2023-03-02T13:13:42.324Z,44.40
2023-03-02T13:16:18.591Z,44.70
2023-03-02T13:18:46.062Z,44.40
2023-03-02T13:21:15.155Z,44.90
2023-03-02T13:23:46.344Z,44.80
2023-03-02T13:26:28.493Z,44.80
2023-03-02T13:29:23.305Z,44.70
2023-03-02T13:31:50.381Z,44.90
2023-03-02T13:34:20.380Z,45.00
2023-03-02T13:36:47.385Z,44.90
2023-03-02T13:39:20.061Z,45.00
2023-03-02T13:41:54.049Z,44.80
2023-03-02T13:44:23.295Z,44.10
2023-03-02T13:46:50.140Z,44.40
2023-03-02T13:49:26.245Z,44.40
2023-03-02T13:51:57.210Z,44.70
2023-03-02T13:54:28.768Z,44.60
2023-03-02T13:56:57.158Z,44.60
2023-03-02T13:59:24.144Z,44.30
2023-03-02T14:01:51.154Z,44.20
2023-03-02T14:04:19.383Z,45.90
2023-03-02T14:06:46.687Z,44.70
2023-03-02T14:09:13.974Z,44.40
2023-03-02T14:11:42.492Z,44.50
2023-03-02T14:14:12.805Z,44.00
2023-03-02T14:16:39.721Z,43.80
2023-03-02T14:19:06.619Z,43.70
2023-03-02T14:21:33.919Z,43.80
2023-03-02T14:24:01.289Z,43.60
2023-03-02T14:26:31.646Z,43.80
2023-03-02T14:29:05.438Z,43.40
2023-03-02T14:31:33.779Z,43.50
2023-03-02T14:34:01.226Z,43.40
2023-03-02T14:36:30.073Z,44.50
2023-03-02T14:38:58.277Z,44.60
2023-03-02T14:41:25.355Z,43.90
2023-03-02T14:43:52.269Z,43.60
2023-03-02T14:46:19.479Z,43.50
2023-03-02T14:48:46.974Z,43.70
2023-03-02T14:51:34.363Z,43.70
2023-03-02T14:54:03.648Z,43.90
2023-03-02T14:56:30.648Z,43.80
2023-03-02T14:58:58.507Z,43.80
2023-03-02T15:01:25.482Z,44.10
2023-03-02T15:03:52.309Z,44.00
2023-03-02T15:06:27.357Z,44.20
2023-03-02T15:08:55.770Z,44.20
2023-03-02T15:11:22.894Z,44.40
2023-03-02T15:13:49.827Z,43.90
2023-03-02T15:16:16.968Z,44.20
2023-03-02T15:18:43.896Z,44.20
2023-03-02T15:21:15.386Z,44.20
2023-03-02T15:23:42.272Z,44.40
2023-03-02T15:26:28.165Z,44.80
2023-03-02T15:28:55.474Z,44.80
2023-03-02T15:31:22.501Z,44.90
2023-03-02T15:33:52.167Z,44.70
2023-03-02T15:36:19.209Z,44.50
2023-03-02T15:38:48.834Z,44.50
2023-03-02T15:41:15.674Z,44.70
2023-03-02T15:43:42.690Z,44.90
2023-03-02T15:46:09.610Z,44.90
2023-03-02T15:48:37.351Z,44.90
2023-03-02T15:51:06.108Z,44.90
2023-03-02T15:53:36.775Z,45.00
2023-03-02T15:56:06.300Z,44.90
2023-03-02T15:58:33.890Z,45.10
2023-03-02T16:01:01.163Z,45.00
2023-03-02T16:03:28.200Z,45.30
2023-03-02T16:05:58.354Z,45.50
2023-03-02T16:08:25.477Z,45.50
2023-03-02T16:10:56.090Z,45.70
2023-03-02T16:13:23.074Z,45.90
2023-03-02T16:15:49.964Z,46.00
2023-03-02T16:18:16.881Z,46.00
2023-03-02T16:20:43.864Z,46.30
2023-03-02T16:23:11.332Z,46.40
2023-03-02T16:25:43.551Z,46.60
2023-03-02T16:28:14.106Z,46.70
2023-03-02T16:30:42.009Z,47.00
2023-03-02T16:33:10.045Z,46.90
2023-03-02T16:35:37.738Z,47.20
2023-03-02T16:38:05.233Z,47.10
2023-03-02T16:40:32.398Z,47.00
2023-03-02T16:42:59.536Z,47.20
2023-03-02T16:45:27.096Z,47.40
2023-03-02T16:47:54.355Z,47.40
2023-03-02T16:50:21.332Z,47.30
2023-03-02T16:52:48.275Z,47.40
2023-03-02T16:55:16.664Z,47.50
2023-03-02T16:57:43.879Z,47.70
2023-03-02T17:00:12.499Z,47.80
2023-03-02T17:02:39.398Z,47.90
2023-03-02T17:05:06.554Z,48.10
2023-03-02T17:07:33.514Z,47.90
2023-03-02T17:10:00.506Z,47.90
2023-03-02T17:12:27.367Z,47.70
2023-03-02T17:14:54.265Z,47.80
2023-03-02T17:17:21.327Z,47.70
2023-03-02T17:19:48.162Z,47.80
2023-03-02T17:22:15.067Z,47.90
2023-03-02T17:24:41.918Z,47.70
2023-03-02T17:27:23.699Z,47.90
2023-03-02T17:29:52.078Z,47.90
2023-03-02T17:32:19.312Z,47.90
2023-03-02T17:34:47.050Z,47.70
2023-03-02T17:37:14.599Z,47.70
2023-03-02T17:39:41.660Z,47.70
2023-03-02T17:42:08.626Z,47.80
2023-03-02T17:44:38.261Z,47.90
2023-03-02T17:47:06.528Z,47.80
2023-03-02T17:49:33.411Z,47.70
2023-03-02T17:52:00.354Z,47.40
2023-03-02T17:54:27.254Z,47.30
2023-03-02T17:56:54.118Z,47.60
2023-03-02T17:59:21.038Z,47.50
2023-03-02T18:01:47.916Z,47.70
2023-03-02T18:04:14.900Z,47.50
2023-03-02T18:06:41.976Z,47.60
2023-03-02T18:09:09.096Z,47.60
2023-03-02T18:11:36.215Z,47.70
2023-03-02T18:14:03.342Z,47.80
2023-03-02T18:16:30.533Z,47.90
2023-03-02T18:18:58.036Z,47.80
2023-03-02T18:21:24.886Z,47.80
2023-03-02T18:23:51.796Z,47.80
2023-03-02T18:26:19.058Z,47.90
2023-03-02T18:28:47.088Z,48.00
2023-03-02T18:31:15.106Z,48.00
2023-03-02T18:33:42.142Z,48.10
2023-03-02T18:36:09.639Z,48.20
2023-03-02T18:38:37.883Z,48.30
2023-03-02T18:41:07.395Z,48.40
2023-03-02T18:43:37.422Z,48.40
2023-03-02T18:46:05.319Z,48.20
2023-03-02T18:48:33.117Z,48.00
2023-03-02T18:50:59.990Z,48.10
2023-03-02T18:53:27.145Z,48.00
2023-03-02T18:55:54.789Z,48.10
2023-03-02T18:58:23.865Z,48.10
2023-03-02T19:00:52.004Z,48.00
2023-03-02T19:03:18.984Z,48.00
2023-03-02T19:05:46.059Z,48.00
2023-03-02T19:08:13.040Z,48.00
2023-03-02T19:10:42.343Z,48.10
2023-03-02T19:13:11.982Z,48.20
2023-03-02T19:15:39.749Z,48.30
2023-03-02T19:18:06.779Z,48.40
2023-03-02T19:20:33.771Z,48.40
2023-03-02T19:23:01.825Z,48.40
2023-03-02T19:25:29.065Z,48.40
2023-03-02T19:27:56.816Z,48.20
2023-03-02T19:30:25.314Z,48.20
2023-03-02T19:32:55.609Z,48.10
2023-03-02T19:35:23.832Z,48.20
2023-03-02T19:37:51.046Z,48.20
2023-03-02T19:40:19.241Z,48.40
2023-03-02T19:42:47.606Z,48.50
2023-03-02T19:45:16.099Z,48.40
2023-03-02T19:47:43.533Z,48.60
2023-03-02T19:50:10.803Z,48.70
2023-03-02T19:52:38.643Z,48.60
2023-03-02T19:55:06.980Z,48.60
2023-03-02T19:57:33.992Z,48.70
2023-03-02T20:00:01.173Z,48.60
2023-03-02T20:02:28.507Z,48.40
2023-03-02T20:04:55.490Z,48.30
2023-03-02T20:07:22.670Z,48.20
2023-03-02T20:09:49.566Z,48.20
2023-03-02T20:12:16.840Z,48.20
2023-03-02T20:14:48.810Z,48.40
2023-03-02T20:17:16.989Z,48.30
2023-03-02T20:19:47.594Z,48.20
2023-03-02T20:22:14.774Z,48.30
2023-03-02T20:24:42.021Z,48.10
2023-03-02T20:27:12.256Z,48.20
2023-03-02T20:29:41.240Z,48.30
2023-03-02T20:32:09.702Z,48.50
2023-03-02T20:34:38.146Z,48.70
2023-03-02T20:37:06.465Z,48.80
2023-03-02T20:39:36.859Z,48.80
2023-03-02T20:42:04.443Z,48.80
2023-03-02T20:44:31.373Z,48.80
2023-03-02T20:46:59.555Z,48.80
2023-03-02T20:49:28.234Z,48.70
2023-03-02T20:51:56.178Z,48.70
2023-03-02T20:54:24.925Z,48.60
2023-03-02T20:56:51.862Z,48.60
2023-03-02T20:59:19.190Z,48.50
2023-03-02T21:01:46.266Z,48.60
2023-03-02T21:04:13.142Z,48.50
2023-03-02T21:06:40.399Z,48.50
2023-03-02T21:09:08.151Z,48.60
2023-03-02T21:11:35.427Z,48.90
2023-03-02T21:14:02.889Z,48.90
2023-03-02T21:16:32.560Z,49.10
2023-03-02T21:19:04.234Z,49.30
2023-03-02T21:21:41.110Z,49.30
2023-03-02T21:24:10.114Z,49.20
2023-03-02T21:26:37.414Z,49.20
2023-03-02T21:29:05.823Z,49.40
2023-03-02T21:31:32.794Z,49.30
2023-03-02T21:34:01.294Z,49.20
2023-03-02T21:37:06.513Z,49.60
2023-03-02T21:39:46.289Z,49.70
2023-03-02T21:42:16.895Z,49.70
2023-03-02T21:44:53.341Z,50.00
2023-03-02T21:47:20.201Z,50.10
2023-03-02T21:49:53.317Z,50.20
2023-03-02T21:52:20.210Z,50.30
2023-03-02T21:54:53.326Z,50.60
2023-03-02T21:57:20.467Z,51.10
2023-03-02T21:59:54.416Z,50.80
2023-03-02T22:02:21.244Z,50.90
2023-03-02T22:04:54.333Z,50.90
2023-03-02T22:07:21.324Z,50.90
2023-03-02T22:09:54.389Z,51.20
2023-03-02T22:12:29.309Z,51.10
2023-03-02T22:14:56.443Z,51.10
2023-03-02T22:17:30.348Z,51.40
2023-03-02T22:19:57.231Z,51.40
2023-03-02T22:22:37.375Z,51.30
2023-03-02T22:25:14.458Z,51.30
2023-03-02T22:27:48.291Z,51.10
2023-03-02T22:30:22.420Z,51.10
2023-03-02T22:32:56.342Z,51.20
2023-03-02T22:35:38.357Z,51.30
2023-03-02T22:38:29.366Z,51.50
2023-03-02T22:40:56.514Z,51.70
2023-03-02T22:43:36.318Z,51.90
2023-03-02T22:46:11.188Z,52.00
2023-03-02T22:48:45.358Z,51.80
2023-03-02T22:51:14.040Z,51.70
2023-03-02T22:53:52.317Z,51.50
2023-03-02T22:56:32.302Z,51.30
2023-03-02T22:59:19.399Z,51.30
2023-03-02T23:01:53.363Z,51.60
2023-03-02T23:04:26.351Z,51.60
2023-03-02T23:07:01.309Z,51.90
2023-03-02T23:09:36.315Z,51.70
2023-03-02T23:12:20.556Z,51.50
2023-03-02T23:14:54.342Z,51.70
2023-03-02T23:17:29.297Z,51.70
2023-03-02T23:20:02.271Z,51.60
2023-03-02T23:22:37.370Z,51.60
2023-03-02T23:25:11.332Z,51.80
2023-03-02T23:27:44.350Z,51.80
2023-03-02T23:30:11.707Z,51.70
2023-03-02T23:32:45.351Z,51.70
2023-03-02T23:35:18.643Z,52.10
2023-03-02T23:37:58.307Z,52.10
2023-03-02T23:40:25.160Z,52.10
2023-03-02T23:42:58.469Z,52.30
2023-03-02T23:45:26.618Z,52.20
2023-03-02T23:48:00.369Z,52.10
2023-03-02T23:50:27.297Z,52.10
2023-03-02T23:53:01.321Z,52.10
2023-03-02T23:55:28.186Z,52.40
2023-03-02T23:58:01.324Z,52.80
